sensor_id;sensor_type;location;lat;lon;timestamp;temperature;humidity
75985;DHT22;65033;44.660;37.758;2023-04-24T00:00:46;13.05;72.42
75985;DHT22;65033;44.660;37.758;2023-04-24T00:01:54;13.03;72.29
75985;DHT22;65033;44.660;37.758;2023-04-24T00:02:59;13.05;72.19
75985;DHT22;65033;44.660;37.758;2023-04-24T00:04:06;13.03;72.67
75985;DHT22;65033;44.660;37.758;2023-04-24T00:05:18;13.03;72.51
75985;DHT22;65033;44.660;37.758;2023-04-24T00:06:25;13.05;71.71
75985;DHT22;65033;44.660;37.758;2023-04-24T00:07:36;13.06;71.90
75985;DHT22;65033;44.660;37.758;2023-04-24T00:08:39;13.06;71.84
75985;DHT22;65033;44.660;37.758;2023-04-24T00:09:43;13.07;72.16
75985;DHT22;65033;44.660;37.758;2023-04-24T00:10:47;13.07;71.69
75985;DHT22;65033;44.660;37.758;2023-04-24T00:11:52;13.06;71.20
75985;DHT22;65033;44.660;37.758;2023-04-24T00:12:56;13.06;71.02
75985;DHT22;65033;44.660;37.758;2023-04-24T00:14:00;13.05;71.06
75985;DHT22;65033;44.660;37.758;2023-04-24T00:15:04;13.05;70.89
75985;DHT22;65033;44.660;37.758;2023-04-24T00:16:09;13.04;70.34
75985;DHT22;65033;44.660;37.758;2023-04-24T00:17:14;13.03;69.90
75985;DHT22;65033;44.660;37.758;2023-04-24T00:18:17;13.03;70.24
75985;DHT22;65033;44.660;37.758;2023-04-24T00:19:21;13.01;69.72
75985;DHT22;65033;44.660;37.758;2023-04-24T00:20:25;13.00;69.97
75985;DHT22;65033;44.660;37.758;2023-04-24T00:21:28;12.99;69.72
75985;DHT22;65033;44.660;37.758;2023-04-24T00:22:33;12.99;70.13
75985;DHT22;65033;44.660;37.758;2023-04-24T00:23:37;12.97;70.63
75985;DHT22;65033;44.660;37.758;2023-04-24T00:24:40;12.95;71.18
75985;DHT22;65033;44.660;37.758;2023-04-24T00:25:44;12.95;71.10
75985;DHT22;65033;44.660;37.758;2023-04-24T00:26:47;12.94;71.32
75985;DHT22;65033;44.660;37.758;2023-04-24T00:27:53;12.93;71.05
75985;DHT22;65033;44.660;37.758;2023-04-24T00:28:56;12.93;71.59
75985;DHT22;65033;44.660;37.758;2023-04-24T00:30:02;12.93;71.79
75985;DHT22;65033;44.660;37.758;2023-04-24T00:31:06;12.93;71.76
75985;DHT22;65033;44.660;37.758;2023-04-24T00:32:10;12.89;72.44
75985;DHT22;65033;44.660;37.758;2023-04-24T00:33:14;12.85;72.45
75985;DHT22;65033;44.660;37.758;2023-04-24T00:34:18;12.85;72.22
75985;DHT22;65033;44.660;37.758;2023-04-24T00:35:21;12.82;73.10
75985;DHT22;65033;44.660;37.758;2023-04-24T00:36:26;12.84;73.38
75985;DHT22;65033;44.660;37.758;2023-04-24T00:37:30;12.84;73.17
75985;DHT22;65033;44.660;37.758;2023-04-24T00:38:33;12.81;72.81
75985;DHT22;65033;44.660;37.758;2023-04-24T00:39:38;12.82;73.64
75985;DHT22;65033;44.660;37.758;2023-04-24T00:40:42;12.85;73.90
75985;DHT22;65033;44.660;37.758;2023-04-24T00:41:46;12.85;73.28
75985;DHT22;65033;44.660;37.758;2023-04-24T00:42:56;12.85;72.77
75985;DHT22;65033;44.660;37.758;2023-04-24T00:44:01;12.84;73.09
75985;DHT22;65033;44.660;37.758;2023-04-24T00:45:07;12.85;74.37
75985;DHT22;65033;44.660;37.758;2023-04-24T00:46:12;12.86;73.32
75985;DHT22;65033;44.660;37.758;2023-04-24T00:47:19;12.86;72.33
75985;DHT22;65033;44.660;37.758;2023-04-24T00:48:24;12.87;73.99
75985;DHT22;65033;44.660;37.758;2023-04-24T00:49:31;12.86;73.58
75985;DHT22;65033;44.660;37.758;2023-04-24T00:50:39;12.86;72.84
75985;DHT22;65033;44.660;37.758;2023-04-24T00:51:43;12.87;73.32
75985;DHT22;65033;44.660;37.758;2023-04-24T00:52:49;12.86;73.03
75985;DHT22;65033;44.660;37.758;2023-04-24T00:53:53;12.86;73.20
75985;DHT22;65033;44.660;37.758;2023-04-24T00:54:57;12.86;72.83
75985;DHT22;65033;44.660;37.758;2023-04-24T00:56:00;12.86;72.66
75985;DHT22;65033;44.660;37.758;2023-04-24T00:57:06;12.87;73.09
75985;DHT22;65033;44.660;37.758;2023-04-24T00:58:11;12.85;73.54
75985;DHT22;65033;44.660;37.758;2023-04-24T00:59:16;12.86;73.20
75985;DHT22;65033;44.660;37.758;2023-04-24T01:00:21;12.86;73.10
75985;DHT22;65033;44.660;37.758;2023-04-24T01:01:28;12.86;73.39
75985;DHT22;65033;44.660;37.758;2023-04-24T01:02:33;12.84;72.87
75985;DHT22;65033;44.660;37.758;2023-04-24T01:03:38;12.85;73.72
75985;DHT22;65033;44.660;37.758;2023-04-24T01:04:45;12.86;73.09
75985;DHT22;65033;44.660;37.758;2023-04-24T01:05:49;12.86;72.77
75985;DHT22;65033;44.660;37.758;2023-04-24T01:06:55;12.84;73.38
75985;DHT22;65033;44.660;37.758;2023-04-24T01:07:59;12.84;73.07
75985;DHT22;65033;44.660;37.758;2023-04-24T01:09:03;12.86;72.76
75985;DHT22;65033;44.660;37.758;2023-04-24T01:10:08;12.87;73.23
75985;DHT22;65033;44.660;37.758;2023-04-24T01:11:12;12.86;73.25
75985;DHT22;65033;44.660;37.758;2023-04-24T01:12:17;12.85;73.77
75985;DHT22;65033;44.660;37.758;2023-04-24T01:13:23;12.86;73.44
75985;DHT22;65033;44.660;37.758;2023-04-24T01:14:27;12.86;74.53
75985;DHT22;65033;44.660;37.758;2023-04-24T01:15:32;12.86;73.80
75985;DHT22;65033;44.660;37.758;2023-04-24T01:16:37;12.85;73.57
75985;DHT22;65033;44.660;37.758;2023-04-24T01:17:41;12.88;73.99
75985;DHT22;65033;44.660;37.758;2023-04-24T01:18:45;12.86;74.09
75985;DHT22;65033;44.660;37.758;2023-04-24T01:19:50;12.88;72.90
75985;DHT22;65033;44.660;37.758;2023-04-24T01:20:58;12.88;73.23
75985;DHT22;65033;44.660;37.758;2023-04-24T01:23:10;12.91;72.87
75985;DHT22;65033;44.660;37.758;2023-04-24T01:24:15;12.91;72.58
75985;DHT22;65033;44.660;37.758;2023-04-24T01:25:20;12.91;72.82
75985;DHT22;65033;44.660;37.758;2023-04-24T01:26:24;12.90;72.69
75985;DHT22;65033;44.660;37.758;2023-04-24T01:27:28;12.91;72.45
75985;DHT22;65033;44.660;37.758;2023-04-24T01:28:34;12.92;72.44
75985;DHT22;65033;44.660;37.758;2023-04-24T01:29:41;12.90;72.51
75985;DHT22;65033;44.660;37.758;2023-04-24T01:30:47;12.90;72.69
75985;DHT22;65033;44.660;37.758;2023-04-24T01:31:51;12.89;72.27
75985;DHT22;65033;44.660;37.758;2023-04-24T01:32:55;12.89;72.48
75985;DHT22;65033;44.660;37.758;2023-04-24T01:34:00;12.90;72.35
75985;DHT22;65033;44.660;37.758;2023-04-24T01:35:05;12.90;72.58
75985;DHT22;65033;44.660;37.758;2023-04-24T01:36:10;12.93;71.51
75985;DHT22;65033;44.660;37.758;2023-04-24T01:37:14;12.92;72.33
75985;DHT22;65033;44.660;37.758;2023-04-24T01:38:20;12.93;72.11
75985;DHT22;65033;44.660;37.758;2023-04-24T01:39:23;12.93;72.58
75985;DHT22;65033;44.660;37.758;2023-04-24T01:40:32;12.95;72.15
75985;DHT22;65033;44.660;37.758;2023-04-24T01:41:38;12.99;71.60
75985;DHT22;65033;44.660;37.758;2023-04-24T01:42:47;13.00;71.74
75985;DHT22;65033;44.660;37.758;2023-04-24T01:43:50;13.01;71.67
75985;DHT22;65033;44.660;37.758;2023-04-24T01:44:55;13.01;70.77
75985;DHT22;65033;44.660;37.758;2023-04-24T01:45:59;13.02;70.68
75985;DHT22;65033;44.660;37.758;2023-04-24T01:47:03;13.02;71.06
75985;DHT22;65033;44.660;37.758;2023-04-24T01:48:06;13.02;70.30
75985;DHT22;65033;44.660;37.758;2023-04-24T01:49:10;13.04;70.77
75985;DHT22;65033;44.660;37.758;2023-04-24T01:50:14;13.05;70.68
75985;DHT22;65033;44.660;37.758;2023-04-24T01:51:18;13.04;71.37
75985;DHT22;65033;44.660;37.758;2023-04-24T01:52:22;13.04;71.84
75985;DHT22;65033;44.660;37.758;2023-04-24T01:53:27;13.05;71.97
75985;DHT22;65033;44.660;37.758;2023-04-24T01:54:30;13.06;71.92
75985;DHT22;65033;44.660;37.758;2023-04-24T01:55:34;13.06;71.84
75985;DHT22;65033;44.660;37.758;2023-04-24T01:56:40;13.05;71.67
75985;DHT22;65033;44.660;37.758;2023-04-24T01:57:45;13.04;71.90
75985;DHT22;65033;44.660;37.758;2023-04-24T01:58:49;13.05;71.48
75985;DHT22;65033;44.660;37.758;2023-04-24T01:59:54;13.05;71.94
75985;DHT22;65033;44.660;37.758;2023-04-24T02:00:57;13.06;71.66
75985;DHT22;65033;44.660;37.758;2023-04-24T02:02:03;13.04;72.43
75985;DHT22;65033;44.660;37.758;2023-04-24T02:03:07;13.07;71.82
75985;DHT22;65033;44.660;37.758;2023-04-24T02:04:11;13.08;72.32
75985;DHT22;65033;44.660;37.758;2023-04-24T02:05:15;13.07;72.03
75985;DHT22;65033;44.660;37.758;2023-04-24T02:06:18;13.08;72.09
75985;DHT22;65033;44.660;37.758;2023-04-24T02:07:22;13.09;72.35
75985;DHT22;65033;44.660;37.758;2023-04-24T02:08:27;13.09;72.01
75985;DHT22;65033;44.660;37.758;2023-04-24T02:09:31;13.10;72.29
75985;DHT22;65033;44.660;37.758;2023-04-24T02:10:34;13.10;72.30
75985;DHT22;65033;44.660;37.758;2023-04-24T02:11:38;13.11;72.47
75985;DHT22;65033;44.660;37.758;2023-04-24T02:12:43;13.11;72.45
75985;DHT22;65033;44.660;37.758;2023-04-24T02:13:46;13.11;73.13
75985;DHT22;65033;44.660;37.758;2023-04-24T02:14:50;13.09;72.98
75985;DHT22;65033;44.660;37.758;2023-04-24T02:15:53;13.11;72.43
75985;DHT22;65033;44.660;37.758;2023-04-24T02:16:59;13.14;72.58
75985;DHT22;65033;44.660;37.758;2023-04-24T02:18:04;13.12;73.09
75985;DHT22;65033;44.660;37.758;2023-04-24T02:19:07;13.16;72.49
75985;DHT22;65033;44.660;37.758;2023-04-24T02:20:11;13.16;71.70
75985;DHT22;65033;44.660;37.758;2023-04-24T02:21:17;13.18;72.17
75985;DHT22;65033;44.660;37.758;2023-04-24T02:22:22;13.19;71.23
75985;DHT22;65033;44.660;37.758;2023-04-24T02:23:27;13.21;72.87
75985;DHT22;65033;44.660;37.758;2023-04-24T02:24:30;13.21;72.50
75985;DHT22;65033;44.660;37.758;2023-04-24T02:25:34;13.22;74.08
75985;DHT22;65033;44.660;37.758;2023-04-24T02:26:37;13.23;73.95
75985;DHT22;65033;44.660;37.758;2023-04-24T02:27:41;13.24;73.44
75985;DHT22;65033;44.660;37.758;2023-04-24T02:28:44;13.27;73.27
75985;DHT22;65033;44.660;37.758;2023-04-24T02:29:48;13.27;72.70
75985;DHT22;65033;44.660;37.758;2023-04-24T02:30:51;13.29;72.76
75985;DHT22;65033;44.660;37.758;2023-04-24T02:31:57;13.31;72.48
75985;DHT22;65033;44.660;37.758;2023-04-24T02:33:01;13.33;72.63
75985;DHT22;65033;44.660;37.758;2023-04-24T02:34:04;13.35;73.19
75985;DHT22;65033;44.660;37.758;2023-04-24T02:35:09;13.35;72.59
75985;DHT22;65033;44.660;37.758;2023-04-24T02:36:12;13.37;74.51
75985;DHT22;65033;44.660;37.758;2023-04-24T02:37:17;13.38;74.35
75985;DHT22;65033;44.660;37.758;2023-04-24T02:38:20;13.39;73.19
75985;DHT22;65033;44.660;37.758;2023-04-24T02:39:25;13.36;72.92
75985;DHT22;65033;44.660;37.758;2023-04-24T02:40:29;13.34;72.49
75985;DHT22;65033;44.660;37.758;2023-04-24T02:41:33;13.35;73.20
75985;DHT22;65033;44.660;37.758;2023-04-24T02:42:36;13.37;73.66
75985;DHT22;65033;44.660;37.758;2023-04-24T02:43:40;13.35;73.61
75985;DHT22;65033;44.660;37.758;2023-04-24T02:44:43;13.39;73.45
75985;DHT22;65033;44.660;37.758;2023-04-24T02:45:46;13.44;71.77
75985;DHT22;65033;44.660;37.758;2023-04-24T02:46:50;13.47;72.20
75985;DHT22;65033;44.660;37.758;2023-04-24T02:47:53;13.49;71.80
75985;DHT22;65033;44.660;37.758;2023-04-24T02:48:56;13.53;71.79
75985;DHT22;65033;44.660;37.758;2023-04-24T02:49:59;13.52;72.51
75985;DHT22;65033;44.660;37.758;2023-04-24T02:51:03;13.50;72.55
75985;DHT22;65033;44.660;37.758;2023-04-24T02:52:06;13.47;73.10
75985;DHT22;65033;44.660;37.758;2023-04-24T02:53:10;13.45;72.20
75985;DHT22;65033;44.660;37.758;2023-04-24T02:54:13;13.41;72.41
75985;DHT22;65033;44.660;37.758;2023-04-24T02:55:18;13.40;73.60
75985;DHT22;65033;44.660;37.758;2023-04-24T02:56:22;13.39;73.62
75985;DHT22;65033;44.660;37.758;2023-04-24T02:57:25;13.37;74.00
75985;DHT22;65033;44.660;37.758;2023-04-24T02:58:28;13.33;74.08
75985;DHT22;65033;44.660;37.758;2023-04-24T02:59:32;13.31;73.77
75985;DHT22;65033;44.660;37.758;2023-04-24T03:00:35;13.30;74.56
75985;DHT22;65033;44.660;37.758;2023-04-24T03:01:39;13.31;74.59
75985;DHT22;65033;44.660;37.758;2023-04-24T03:02:43;13.29;74.60
75985;DHT22;65033;44.660;37.758;2023-04-24T03:03:47;13.30;74.69
75985;DHT22;65033;44.660;37.758;2023-04-24T03:04:50;13.27;73.57
75985;DHT22;65033;44.660;37.758;2023-04-24T03:05:56;13.26;73.16
75985;DHT22;65033;44.660;37.758;2023-04-24T03:06:59;13.27;73.77
75985;DHT22;65033;44.660;37.758;2023-04-24T03:08:04;13.29;73.98
75985;DHT22;65033;44.660;37.758;2023-04-24T03:09:08;13.33;74.04
75985;DHT22;65033;44.660;37.758;2023-04-24T03:10:13;13.33;73.48
75985;DHT22;65033;44.660;37.758;2023-04-24T03:11:18;13.32;74.28
75985;DHT22;65033;44.660;37.758;2023-04-24T03:12:21;13.34;73.48
75985;DHT22;65033;44.660;37.758;2023-04-24T03:13:26;13.38;75.79
75985;DHT22;65033;44.660;37.758;2023-04-24T03:14:29;13.45;72.97
75985;DHT22;65033;44.660;37.758;2023-04-24T03:15:34;13.46;73.44
75985;DHT22;65033;44.660;37.758;2023-04-24T03:16:37;13.46;74.26
75985;DHT22;65033;44.660;37.758;2023-04-24T03:17:42;13.45;73.31
75985;DHT22;65033;44.660;37.758;2023-04-24T03:18:45;13.46;73.33
75985;DHT22;65033;44.660;37.758;2023-04-24T03:19:49;13.49;73.80
75985;DHT22;65033;44.660;37.758;2023-04-24T03:20:53;13.50;73.01
75985;DHT22;65033;44.660;37.758;2023-04-24T03:21:56;13.49;74.67
75985;DHT22;65033;44.660;37.758;2023-04-24T03:23:00;13.51;73.35
75985;DHT22;65033;44.660;37.758;2023-04-24T03:24:03;13.53;73.72
75985;DHT22;65033;44.660;37.758;2023-04-24T03:25:08;13.53;73.99
75985;DHT22;65033;44.660;37.758;2023-04-24T03:26:13;13.53;72.26
75985;DHT22;65033;44.660;37.758;2023-04-24T03:27:29;13.55;73.48
75985;DHT22;65033;44.660;37.758;2023-04-24T03:28:39;13.60;72.84
75985;DHT22;65033;44.660;37.758;2023-04-24T03:29:43;13.63;72.67
75985;DHT22;65033;44.660;37.758;2023-04-24T03:30:46;13.64;72.90
75985;DHT22;65033;44.660;37.758;2023-04-24T03:31:51;13.69;72.51
75985;DHT22;65033;44.660;37.758;2023-04-24T03:32:54;13.71;72.25
75985;DHT22;65033;44.660;37.758;2023-04-24T03:34:01;13.78;73.35
75985;DHT22;65033;44.660;37.758;2023-04-24T03:35:06;13.82;73.03
75985;DHT22;65033;44.660;37.758;2023-04-24T03:36:10;13.86;72.80
75985;DHT22;65033;44.660;37.758;2023-04-24T03:37:15;13.92;72.05
75985;DHT22;65033;44.660;37.758;2023-04-24T03:38:26;13.96;72.03
75985;DHT22;65033;44.660;37.758;2023-04-24T03:39:41;13.99;71.83
75985;DHT22;65033;44.660;37.758;2023-04-24T03:40:45;14.03;72.13
75985;DHT22;65033;44.660;37.758;2023-04-24T03:42:09;14.06;72.48
75985;DHT22;65033;44.660;37.758;2023-04-24T03:43:25;14.10;71.65
75985;DHT22;65033;44.660;37.758;2023-04-24T03:44:32;14.17;71.88
75985;DHT22;65033;44.660;37.758;2023-04-24T03:45:36;14.18;71.93
75985;DHT22;65033;44.660;37.758;2023-04-24T03:46:39;14.23;71.61
75985;DHT22;65033;44.660;37.758;2023-04-24T03:47:45;14.25;71.44
75985;DHT22;65033;44.660;37.758;2023-04-24T03:48:49;14.28;70.76
75985;DHT22;65033;44.660;37.758;2023-04-24T03:49:54;14.29;70.83
75985;DHT22;65033;44.660;37.758;2023-04-24T03:50:58;14.29;71.04
75985;DHT22;65033;44.660;37.758;2023-04-24T03:52:02;14.36;71.45
75985;DHT22;65033;44.660;37.758;2023-04-24T03:53:06;14.39;70.39
75985;DHT22;65033;44.660;37.758;2023-04-24T03:54:13;14.43;70.41
75985;DHT22;65033;44.660;37.758;2023-04-24T03:55:17;14.44;71.84
75985;DHT22;65033;44.660;37.758;2023-04-24T03:56:22;14.48;71.24
75985;DHT22;65033;44.660;37.758;2023-04-24T03:57:26;14.52;70.89
75985;DHT22;65033;44.660;37.758;2023-04-24T03:58:47;14.56;71.48
75985;DHT22;65033;44.660;37.758;2023-04-24T03:59:51;14.60;71.00
75985;DHT22;65033;44.660;37.758;2023-04-24T04:00:56;14.64;70.29
75985;DHT22;65033;44.660;37.758;2023-04-24T04:02:24;14.64;70.57
75985;DHT22;65033;44.660;37.758;2023-04-24T04:03:27;14.68;70.85
75985;DHT22;65033;44.660;37.758;2023-04-24T04:04:31;14.70;70.51
75985;DHT22;65033;44.660;37.758;2023-04-24T04:05:35;14.73;70.60
75985;DHT22;65033;44.660;37.758;2023-04-24T04:06:38;14.75;70.42
75985;DHT22;65033;44.660;37.758;2023-04-24T04:07:42;14.79;70.20
75985;DHT22;65033;44.660;37.758;2023-04-24T04:08:45;14.82;70.17
75985;DHT22;65033;44.660;37.758;2023-04-24T04:09:48;14.83;70.99
75985;DHT22;65033;44.660;37.758;2023-04-24T04:10:52;14.83;70.40
75985;DHT22;65033;44.660;37.758;2023-04-24T04:11:55;14.82;71.37
75985;DHT22;65033;44.660;37.758;2023-04-24T04:12:59;14.82;71.36
75985;DHT22;65033;44.660;37.758;2023-04-24T04:14:04;14.82;70.77
75985;DHT22;65033;44.660;37.758;2023-04-24T04:15:10;14.84;70.81
75985;DHT22;65033;44.660;37.758;2023-04-24T04:16:14;14.82;71.58
75985;DHT22;65033;44.660;37.758;2023-04-24T04:17:20;14.83;71.19
75985;DHT22;65033;44.660;37.758;2023-04-24T04:18:24;14.82;71.28
75985;DHT22;65033;44.660;37.758;2023-04-24T04:19:27;14.84;71.16
75985;DHT22;65033;44.660;37.758;2023-04-24T04:20:31;14.83;71.43
75985;DHT22;65033;44.660;37.758;2023-04-24T04:21:34;14.81;70.81
75985;DHT22;65033;44.660;37.758;2023-04-24T04:22:59;14.75;70.35
75985;DHT22;65033;44.660;37.758;2023-04-24T04:24:14;14.79;71.03
75985;DHT22;65033;44.660;37.758;2023-04-24T04:25:20;14.79;71.77
75985;DHT22;65033;44.660;37.758;2023-04-24T04:26:24;14.75;71.39
75985;DHT22;65033;44.660;37.758;2023-04-24T04:27:43;14.68;72.30
75985;DHT22;65033;44.660;37.758;2023-04-24T04:28:48;14.67;72.26
75985;DHT22;65033;44.660;37.758;2023-04-24T04:29:53;14.65;71.71
75985;DHT22;65033;44.660;37.758;2023-04-24T04:30:56;14.63;71.38
75985;DHT22;65033;44.660;37.758;2023-04-24T04:32:00;14.64;71.53
75985;DHT22;65033;44.660;37.758;2023-04-24T04:33:04;14.64;71.73
75985;DHT22;65033;44.660;37.758;2023-04-24T04:34:09;14.66;72.29
75985;DHT22;65033;44.660;37.758;2023-04-24T04:35:13;14.67;70.84
75985;DHT22;65033;44.660;37.758;2023-04-24T04:36:16;14.69;71.15
75985;DHT22;65033;44.660;37.758;2023-04-24T04:37:35;14.74;71.64
75985;DHT22;65033;44.660;37.758;2023-04-24T04:39:01;14.77;72.37
75985;DHT22;65033;44.660;37.758;2023-04-24T04:40:20;14.78;71.72
75985;DHT22;65033;44.660;37.758;2023-04-24T04:41:29;14.83;71.91
75985;DHT22;65033;44.660;37.758;2023-04-24T04:42:33;14.82;72.84
75985;DHT22;65033;44.660;37.758;2023-04-24T04:43:37;14.87;71.92
75985;DHT22;65033;44.660;37.758;2023-04-24T04:44:43;14.89;72.25
75985;DHT22;65033;44.660;37.758;2023-04-24T04:45:54;14.94;72.63
75985;DHT22;65033;44.660;37.758;2023-04-24T04:47:17;14.99;71.29
75985;DHT22;65033;44.660;37.758;2023-04-24T04:48:21;15.04;71.53
75985;DHT22;65033;44.660;37.758;2023-04-24T04:49:25;15.11;71.49
75985;DHT22;65033;44.660;37.758;2023-04-24T04:50:31;15.13;70.64
75985;DHT22;65033;44.660;37.758;2023-04-24T04:51:40;15.15;70.74
75985;DHT22;65033;44.660;37.758;2023-04-24T04:52:44;15.19;70.54
75985;DHT22;65033;44.660;37.758;2023-04-24T04:54:05;15.24;71.03
75985;DHT22;65033;44.660;37.758;2023-04-24T04:55:09;15.29;71.26
75985;DHT22;65033;44.660;37.758;2023-04-24T04:56:34;15.36;71.09
75985;DHT22;65033;44.660;37.758;2023-04-24T04:57:37;15.37;70.13
75985;DHT22;65033;44.660;37.758;2023-04-24T04:58:41;15.39;70.03
75985;DHT22;65033;44.660;37.758;2023-04-24T04:59:47;15.41;69.02
75985;DHT22;65033;44.660;37.758;2023-04-24T05:01:03;15.43;69.83
75985;DHT22;65033;44.660;37.758;2023-04-24T05:02:12;15.45;69.84
75985;DHT22;65033;44.660;37.758;2023-04-24T05:03:16;15.48;69.52
75985;DHT22;65033;44.660;37.758;2023-04-24T05:04:23;15.53;69.55
75985;DHT22;65033;44.660;37.758;2023-04-24T05:05:27;15.56;70.59
75985;DHT22;65033;44.660;37.758;2023-04-24T05:06:31;15.57;70.26
75985;DHT22;65033;44.660;37.758;2023-04-24T05:07:36;15.52;70.26
75985;DHT22;65033;44.660;37.758;2023-04-24T05:08:41;15.52;70.74
75985;DHT22;65033;44.660;37.758;2023-04-24T05:09:50;15.53;71.39
75985;DHT22;65033;44.660;37.758;2023-04-24T05:10:55;15.54;71.53
75985;DHT22;65033;44.660;37.758;2023-04-24T05:12:01;15.57;70.87
75985;DHT22;65033;44.660;37.758;2023-04-24T05:13:09;15.60;70.38
75985;DHT22;65033;44.660;37.758;2023-04-24T05:14:13;15.63;70.24
75985;DHT22;65033;44.660;37.758;2023-04-24T05:15:18;15.66;70.72
75985;DHT22;65033;44.660;37.758;2023-04-24T05:16:23;15.69;70.18
75985;DHT22;65033;44.660;37.758;2023-04-24T05:17:29;15.72;69.17
75985;DHT22;65033;44.660;37.758;2023-04-24T05:18:33;15.73;68.56
75985;DHT22;65033;44.660;37.758;2023-04-24T05:19:37;15.73;68.80
75985;DHT22;65033;44.660;37.758;2023-04-24T05:20:42;15.74;68.75
75985;DHT22;65033;44.660;37.758;2023-04-24T05:21:46;15.75;68.86
75985;DHT22;65033;44.660;37.758;2023-04-24T05:22:50;15.78;69.13
75985;DHT22;65033;44.660;37.758;2023-04-24T05:23:54;15.82;69.56
75985;DHT22;65033;44.660;37.758;2023-04-24T05:25:21;15.84;69.07
75985;DHT22;65033;44.660;37.758;2023-04-24T05:26:35;15.85;69.61
75985;DHT22;65033;44.660;37.758;2023-04-24T05:27:39;15.87;69.43
75985;DHT22;65033;44.660;37.758;2023-04-24T05:28:49;15.91;68.48
75985;DHT22;65033;44.660;37.758;2023-04-24T05:29:52;15.91;69.10
75985;DHT22;65033;44.660;37.758;2023-04-24T05:30:56;15.91;68.44
75985;DHT22;65033;44.660;37.758;2023-04-24T05:32:01;15.95;68.42
75985;DHT22;65033;44.660;37.758;2023-04-24T05:33:06;15.96;68.48
75985;DHT22;65033;44.660;37.758;2023-04-24T05:34:10;15.97;67.49
75985;DHT22;65033;44.660;37.758;2023-04-24T05:35:17;15.98;69.26
75985;DHT22;65033;44.660;37.758;2023-04-24T05:36:21;15.98;68.15
75985;DHT22;65033;44.660;37.758;2023-04-24T05:37:25;15.98;67.76
75985;DHT22;65033;44.660;37.758;2023-04-24T05:38:28;15.99;67.84
75985;DHT22;65033;44.660;37.758;2023-04-24T05:39:32;16.02;67.37
75985;DHT22;65033;44.660;37.758;2023-04-24T05:40:35;16.02;67.60
75985;DHT22;65033;44.660;37.758;2023-04-24T05:41:39;16.01;68.61
75985;DHT22;65033;44.660;37.758;2023-04-24T05:42:42;16.03;68.43
75985;DHT22;65033;44.660;37.758;2023-04-24T05:43:46;16.03;68.10
75985;DHT22;65033;44.660;37.758;2023-04-24T05:44:49;16.02;68.13
75985;DHT22;65033;44.660;37.758;2023-04-24T05:46:11;16.02;68.66
75985;DHT22;65033;44.660;37.758;2023-04-24T05:47:17;16.04;68.49
75985;DHT22;65033;44.660;37.758;2023-04-24T05:49:41;16.02;67.98
75985;DHT22;65033;44.660;37.758;2023-04-24T05:50:49;16.02;67.36
75985;DHT22;65033;44.660;37.758;2023-04-24T05:51:53;15.99;67.72
75985;DHT22;65033;44.660;37.758;2023-04-24T05:52:57;15.99;67.09
75985;DHT22;65033;44.660;37.758;2023-04-24T05:54:08;15.97;67.78
75985;DHT22;65033;44.660;37.758;2023-04-24T05:55:31;16.00;67.91
75985;DHT22;65033;44.660;37.758;2023-04-24T05:58:20;15.95;66.74
75985;DHT22;65033;44.660;37.758;2023-04-24T05:59:27;15.92;67.81
75985;DHT22;65033;44.660;37.758;2023-04-24T06:00:38;15.89;67.33
75985;DHT22;65033;44.660;37.758;2023-04-24T06:01:47;15.88;67.51
75985;DHT22;65033;44.660;37.758;2023-04-24T06:02:55;15.88;67.26
75985;DHT22;65033;44.660;37.758;2023-04-24T06:04:03;15.83;67.23
75985;DHT22;65033;44.660;37.758;2023-04-24T06:05:08;15.80;68.71
75985;DHT22;65033;44.660;37.758;2023-04-24T06:06:26;15.78;68.65
75985;DHT22;65033;44.660;37.758;2023-04-24T06:07:30;15.75;68.53
75985;DHT22;65033;44.660;37.758;2023-04-24T06:08:36;15.73;69.41
75985;DHT22;65033;44.660;37.758;2023-04-24T06:09:40;15.69;69.17
75985;DHT22;65033;44.660;37.758;2023-04-24T06:10:44;15.70;68.79
75985;DHT22;65033;44.660;37.758;2023-04-24T06:11:47;15.70;69.01
75985;DHT22;65033;44.660;37.758;2023-04-24T06:13:21;15.67;69.82
75985;DHT22;65033;44.660;37.758;2023-04-24T06:14:50;15.60;69.78
75985;DHT22;65033;44.660;37.758;2023-04-24T06:16:04;15.61;70.77
75985;DHT22;65033;44.660;37.758;2023-04-24T06:17:12;15.61;70.64
75985;DHT22;65033;44.660;37.758;2023-04-24T06:18:17;15.58;70.23
75985;DHT22;65033;44.660;37.758;2023-04-24T06:19:23;15.59;70.94
75985;DHT22;65033;44.660;37.758;2023-04-24T06:20:26;15.59;70.48
75985;DHT22;65033;44.660;37.758;2023-04-24T06:21:29;15.56;70.65
75985;DHT22;65033;44.660;37.758;2023-04-24T06:22:35;15.54;71.64
75985;DHT22;65033;44.660;37.758;2023-04-24T06:23:38;15.55;71.34
75985;DHT22;65033;44.660;37.758;2023-04-24T06:24:42;15.56;71.67
75985;DHT22;65033;44.660;37.758;2023-04-24T06:25:45;15.57;71.09
75985;DHT22;65033;44.660;37.758;2023-04-24T06:26:48;15.55;72.22
75985;DHT22;65033;44.660;37.758;2023-04-24T06:27:51;15.54;70.92
75985;DHT22;65033;44.660;37.758;2023-04-24T06:28:55;15.53;71.37
75985;DHT22;65033;44.660;37.758;2023-04-24T06:29:58;15.54;71.96
75985;DHT22;65033;44.660;37.758;2023-04-24T06:31:02;15.54;71.97
75985;DHT22;65033;44.660;37.758;2023-04-24T06:32:05;15.54;72.67
75985;DHT22;65033;44.660;37.758;2023-04-24T06:33:08;15.52;71.58
75985;DHT22;65033;44.660;37.758;2023-04-24T06:34:22;15.45;72.07
75985;DHT22;65033;44.660;37.758;2023-04-24T06:35:27;15.41;72.79
75985;DHT22;65033;44.660;37.758;2023-04-24T06:36:34;15.36;72.39
75985;DHT22;65033;44.660;37.758;2023-04-24T06:37:39;15.36;72.39
75985;DHT22;65033;44.660;37.758;2023-04-24T06:38:44;15.33;73.27
75985;DHT22;65033;44.660;37.758;2023-04-24T06:39:49;15.37;73.90
75985;DHT22;65033;44.660;37.758;2023-04-24T06:40:52;15.29;72.99
75985;DHT22;65033;44.660;37.758;2023-04-24T06:41:56;15.29;73.69
75985;DHT22;65033;44.660;37.758;2023-04-24T06:42:59;15.28;72.89
75985;DHT22;65033;44.660;37.758;2023-04-24T06:44:05;15.27;74.02
75985;DHT22;65033;44.660;37.758;2023-04-24T06:45:09;15.27;73.58
75985;DHT22;65033;44.660;37.758;2023-04-24T06:46:13;15.27;72.93
75985;DHT22;65033;44.660;37.758;2023-04-24T06:47:17;15.24;73.54
75985;DHT22;65033;44.660;37.758;2023-04-24T06:48:21;15.23;74.06
75985;DHT22;65033;44.660;37.758;2023-04-24T06:49:26;15.24;74.61
75985;DHT22;65033;44.660;37.758;2023-04-24T06:50:29;15.22;73.85
75985;DHT22;65033;44.660;37.758;2023-04-24T06:51:32;15.22;75.36
75985;DHT22;65033;44.660;37.758;2023-04-24T06:52:36;15.23;75.90